Time;durP1;ratioP1;P1;durP2;ratioP2;P2;SDS_P1;SDS_P2;PMS_P1;PMS_P2;Temp;Humidity;BMP_temperature;BMP_pressure;BME280_temperature;BME280_humidity;BME280_pressure;Samples;Min_cycle;Max_cycle;Signal;HPM_P1;HPM_P2
2024/03/08 00:04:33;;;;;;;;;;;;;;;-0.24;100.00;95574.88;10360674;28;2053;-64
2024/03/08 00:09:36;;;;;;;;;;;;;;;-0.25;100.00;95573.25;10359333;28;2120;-64
2024/03/08 00:14:39;;;;;;;;;;;;;;;-0.25;100.00;95573.25;10358406;28;2023;-67
2024/03/08 00:19:41;;;;;;;;;;;;;;;-0.27;100.00;95570.81;10361862;28;2101;-64
2024/03/08 00:24:44;;;;;;;;;;;;;;;-0.30;100.00;95568.59;10353309;28;2109;-64
2024/03/08 00:29:47;;;;;;;;;;;;;;;-0.33;100.00;95568.19;10362146;28;2300;-65
2024/03/08 00:34:51;;;;;;;;;;;;;;;-0.35;100.00;95557.03;10374430;28;1862;-65
2024/03/08 00:39:54;;;;;;;;;;;;;;;-0.41;100.00;95557.88;10362300;28;1947;-64
2024/03/08 00:44:57;;;;;;;;;;;;;;;-0.40;100.00;95554.22;10362077;28;2264;-65
2024/03/08 00:50:03;;;;;;;;;;;;;;;-0.39;100.00;95540.78;10355894;28;1893;-65
2024/03/08 00:55:07;;;;;;;;;;;;;;;-0.40;100.00;95533.09;10358145;28;2152;-65
2024/03/08 01:00:11;;;;;;;;;;;;;;;-0.46;100.00;95526.00;10359351;28;1921;-64
2024/03/08 01:05:16;;;;;;;;;;;;;;;-0.50;100.00;95523.00;10357563;28;1919;-64
2024/03/08 01:10:19;;;;;;;;;;;;;;;-0.51;100.00;95509.97;10357777;28;2363;-65
2024/03/08 01:15:22;;;;;;;;;;;;;;;-0.57;100.00;95512.47;10354382;28;2061;-65
2024/03/08 01:20:24;;;;;;;;;;;;;;;-0.54;100.00;95511.22;10357899;28;2026;-66
2024/03/08 01:25:27;;;;;;;;;;;;;;;-0.56;100.00;95506.16;10372607;28;1973;-66
2024/03/08 01:30:32;;;;;;;;;;;;;;;-0.52;100.00;95503.91;10360845;28;2038;-63
2024/03/08 01:35:35;;;;;;;;;;;;;;;-0.57;100.00;95494.00;10359164;28;2202;-67
2024/03/08 01:40:40;;;;;;;;;;;;;;;-0.59;100.00;95493.38;10363997;28;2119;-65
2024/03/08 01:45:44;;;;;;;;;;;;;;;-0.59;100.00;95485.44;10364377;28;2055;-65
2024/03/08 01:56:06;;;;;;;;;;;;;;;-0.68;100.00;95468.25;10353611;28;1909;-66
2024/03/08 02:01:09;;;;;;;;;;;;;;;-0.69;100.00;95450.78;10361224;28;2029;-66
2024/03/08 02:06:15;;;;;;;;;;;;;;;-0.73;100.00;95449.59;10362372;28;2365;-70
2024/03/08 02:11:20;;;;;;;;;;;;;;;-0.76;100.00;95444.75;10358231;28;1942;-65
2024/03/08 02:16:23;;;;;;;;;;;;;;;-0.77;100.00;95442.28;10357216;28;2089;-64
2024/03/08 02:21:26;;;;;;;;;;;;;;;-0.79;100.00;95445.16;10354560;28;1904;-63
2024/03/08 02:26:28;;;;;;;;;;;;;;;-0.73;100.00;95444.31;10351689;28;1925;-64
2024/03/08 02:31:32;;;;;;;;;;;;;;;-0.75;100.00;95435.81;10359100;28;2143;-65
2024/03/08 02:36:36;;;;;;;;;;;;;;;-0.76;100.00;95436.81;10359932;28;2082;-66
2024/03/08 02:41:39;;;;;;;;;;;;;;;-0.82;100.00;95430.56;10359467;28;2058;-70
2024/03/08 02:46:41;;;;;;;;;;;;;;;-0.86;100.00;95423.25;10354389;28;2108;-66
2024/03/08 02:51:44;;;;;;;;;;;;;;;-0.83;100.00;95430.75;10359842;28;2551;-65
2024/03/08 02:56:47;;;;;;;;;;;;;;;-0.92;100.00;95432.03;10360978;28;1897;-65
2024/03/08 03:01:50;;;;;;;;;;;;;;;-0.94;100.00;95426.16;10357994;28;1903;-65
2024/03/08 03:06:53;;;;;;;;;;;;;;;-0.93;100.00;95422.50;10355990;28;2021;-63
2024/03/08 03:11:55;;;;;;;;;;;;;;;-0.93;100.00;95419.84;10358381;28;2231;-64
2024/03/08 03:16:58;;;;;;;;;;;;;;;-0.89;100.00;95421.03;10353599;28;2121;-63
2024/03/08 03:22:01;;;;;;;;;;;;;;;-0.93;100.00;95411.94;10364339;28;1837;-64
2024/03/08 03:27:11;;;;;;;;;;;;;;;-0.99;100.00;95412.78;10359393;28;2069;-64
2024/03/08 03:32:13;;;;;;;;;;;;;;;-1.01;100.00;95405.06;10358739;28;2688;-63
2024/03/08 03:37:18;;;;;;;;;;;;;;;-1.07;100.00;95407.75;10357615;28;2070;-70
2024/03/08 03:42:20;;;;;;;;;;;;;;;-1.14;100.00;95411.22;10361917;28;1967;-73
2024/03/08 03:47:22;;;;;;;;;;;;;;;-1.09;100.00;95411.38;10357479;28;1924;-73
2024/03/08 03:52:26;;;;;;;;;;;;;;;-1.17;100.00;95398.44;10362869;28;1931;-72
2024/03/08 03:57:29;;;;;;;;;;;;;;;-1.19;100.00;95397.84;10351266;28;2277;-67
2024/03/08 04:02:32;;;;;;;;;;;;;;;-1.20;100.00;95396.22;10349478;28;2196;-64
2024/03/08 04:07:35;;;;;;;;;;;;;;;-1.27;100.00;95398.09;10372683;28;1971;-63
2024/03/08 04:12:37;;;;;;;;;;;;;;;-1.30;100.00;95390.59;10369510;28;1953;-65
2024/03/08 04:17:40;;;;;;;;;;;;;;;-1.31;100.00;95399.50;10370822;28;1973;-65
2024/03/08 04:22:44;;;;;;;;;;;;;;;-1.36;100.00;95386.94;10359634;28;2242;-65
2024/03/08 04:27:49;;;;;;;;;;;;;;;-1.38;100.00;95382.91;10356003;28;2337;-65
2024/03/08 04:32:52;;;;;;;;;;;;;;;-1.44;100.00;95383.75;10355078;28;1903;-63
2024/03/08 04:37:57;;;;;;;;;;;;;;;-1.45;100.00;95379.50;10358493;28;1836;-64
2024/03/08 04:43:00;;;;;;;;;;;;;;;-1.47;100.00;95378.88;10363564;28;2886;-64
2024/03/08 04:48:02;;;;;;;;;;;;;;;-1.47;100.00;95378.88;10356849;28;1960;-66
2024/03/08 04:53:07;;;;;;;;;;;;;;;-1.44;100.00;95378.47;10357218;28;2021;-64
2024/03/08 04:58:10;;;;;;;;;;;;;;;-1.46;100.00;95377.88;10371458;28;2025;-69
2024/03/08 05:03:13;;;;;;;;;;;;;;;-1.36;100.00;95368.50;10369881;28;2056;-67
2024/03/08 05:08:18;;;;;;;;;;;;;;;-1.26;100.00;95373.34;10373250;28;1970;-65
2024/03/08 05:13:20;;;;;;;;;;;;;;;-1.22;100.00;95374.50;10366798;28;2064;-64
2024/03/08 05:18:24;;;;;;;;;;;;;;;-1.11;100.00;95373.84;10351520;28;2015;-65
2024/03/08 05:23:27;;;;;;;;;;;;;;;-0.98;100.00;95372.19;10370034;28;2008;-68
2024/03/08 05:28:29;;;;;;;;;;;;;;;-0.90;100.00;95361.38;10358425;28;1892;-64
2024/03/08 05:33:34;;;;;;;;;;;;;;;-0.79;100.00;95360.69;10376512;28;2895;-66
2024/03/08 05:38:37;;;;;;;;;;;;;;;-0.84;100.00;95360.53;10357429;28;1923;-62
2024/03/08 05:43:39;;;;;;;;;;;;;;;-0.82;100.00;95351.38;10355353;28;1993;-64
2024/03/08 05:48:42;;;;;;;;;;;;;;;-0.78;100.00;95356.22;10354544;28;1962;-64
2024/03/08 05:53:44;;;;;;;;;;;;;;;-0.77;100.00;95348.09;10354237;28;1931;-64
2024/03/08 05:58:49;;;;;;;;;;;;;;;-0.70;100.00;95348.03;10355887;28;2029;-64
2024/03/08 06:03:55;;;;;;;;;;;;;;;-0.73;100.00;95345.84;10361467;28;2145;-64
2024/03/08 06:08:58;;;;;;;;;;;;;;;-0.51;100.00;95341.81;10363116;28;2054;-66
2024/03/08 06:14:01;;;;;;;;;;;;;;;-0.39;100.00;95337.44;10363007;28;2887;-66
2024/03/08 06:19:05;;;;;;;;;;;;;;;-0.24;100.00;95344.25;10360098;28;1841;-64
2024/03/08 06:24:08;;;;;;;;;;;;;;;-0.34;100.00;95336.81;10354149;28;1945;-64
2024/03/08 06:29:12;;;;;;;;;;;;;;;-0.25;100.00;95346.09;10354915;28;2231;-65
2024/03/08 06:50:12;;;;;;;;;;;;;;;-0.05;100.00;95341.44;10361094;28;1964;-66
2024/03/08 06:55:15;;;;;;;;;;;;;;;0.06;100.00;95339.09;10363696;28;2645;-63
2024/03/08 07:00:20;;;;;;;;;;;;;;;0.17;100.00;95343.66;10377108;28;1987;-66
2024/03/08 07:05:33;;;;;;;;;;;;;;;0.53;100.00;95338.38;10373025;28;2106;-63
2024/03/08 07:10:37;;;;;;;;;;;;;;;0.83;100.00;95329.69;10358571;28;2317;-64
2024/03/08 07:15:40;;;;;;;;;;;;;;;0.84;100.00;95331.31;10361209;28;2083;-65
2024/03/08 07:26:11;;;;;;;;;;;;;;;0.80;100.00;95319.53;10357203;28;2156;-63
2024/03/08 07:31:21;;;;;;;;;;;;;;;0.60;100.00;95334.84;10353677;28;1976;-65
2024/03/08 07:36:26;;;;;;;;;;;;;;;0.96;100.00;95320.78;10360304;28;1976;-64
2024/03/08 07:41:28;;;;;;;;;;;;;;;1.30;100.00;95317.41;10349851;28;1976;-63
2024/03/08 07:46:33;;;;;;;;;;;;;;;1.36;100.00;95310.41;10358852;28;2561;-63
2024/03/08 07:51:36;;;;;;;;;;;;;;;1.48;100.00;95315.72;10356613;28;2177;-63
2024/03/08 07:56:39;;;;;;;;;;;;;;;1.83;100.00;95302.50;10349770;28;1974;-63
2024/03/08 08:01:43;;;;;;;;;;;;;;;1.71;100.00;95291.91;10357232;28;1885;-63
2024/03/08 08:06:46;;;;;;;;;;;;;;;1.61;100.00;95292.47;10354449;28;1985;-62
2024/03/08 08:11:49;;;;;;;;;;;;;;;1.29;100.00;95291.97;10348103;28;2168;-62
2024/03/08 08:16:52;;;;;;;;;;;;;;;1.24;100.00;95296.34;10350513;28;2037;-62
2024/03/08 08:21:55;;;;;;;;;;;;;;;0.87;100.00;95300.94;10368573;28;2188;-62
2024/03/08 08:26:58;;;;;;;;;;;;;;;1.10;100.00;95298.38;10364868;28;2125;-65
2024/03/08 08:32:00;;;;;;;;;;;;;;;1.27;100.00;95288.75;10364421;28;2078;-62
2024/03/08 08:37:06;;;;;;;;;;;;;;;1.52;100.00;95277.94;10360939;28;2592;-63
2024/03/08 08:42:09;;;;;;;;;;;;;;;1.51;100.00;95271.03;10356843;28;2023;-63
2024/03/08 08:47:12;;;;;;;;;;;;;;;1.38;100.00;95268.59;10354128;28;2226;-63
2024/03/08 08:52:18;;;;;;;;;;;;;;;1.60;100.00;95261.72;10369587;28;2053;-63
2024/03/08 08:57:21;;;;;;;;;;;;;;;1.78;100.00;95260.81;10363072;28;2074;-62
2024/03/08 09:02:25;;;;;;;;;;;;;;;1.94;100.00;95251.34;10362526;28;1951;-61
2024/03/08 09:07:28;;;;;;;;;;;;;;;1.89;100.00;95256.53;10358974;28;2074;-63
2024/03/08 09:12:32;;;;;;;;;;;;;;;2.14;100.00;95249.13;10369739;28;1994;-63
2024/03/08 09:17:35;;;;;;;;;;;;;;;2.30;100.00;95244.16;10363709;28;1945;-65
2024/03/08 09:22:38;;;;;;;;;;;;;;;2.58;100.00;95230.09;10347788;28;2005;-64
2024/03/08 09:27:40;;;;;;;;;;;;;;;2.54;100.00;95221.78;10359719;28;2594;-64
2024/03/08 09:32:44;;;;;;;;;;;;;;;2.70;100.00;95210.44;10351551;28;2038;-63
2024/03/08 09:37:51;;;;;;;;;;;;;;;2.62;100.00;95216.13;10351636;28;1976;-63
2024/03/08 09:42:59;;;;;;;;;;;;;;;2.81;100.00;95214.09;10352154;28;2305;-64
2024/03/08 09:48:02;;;;;;;;;;;;;;;3.14;100.00;95200.03;10350402;28;2001;-63
2024/03/08 09:53:08;;;;;;;;;;;;;;;3.23;100.00;95198.59;10357727;28;2128;-65
2024/03/08 10:03:32;;;;;;;;;;;;;;;3.77;100.00;95198.88;10357533;28;2017;-65
2024/03/08 10:08:36;;;;;;;;;;;;;;;3.64;100.00;95188.59;10357230;28;2407;-72
2024/03/08 10:13:40;;;;;;;;;;;;;;;3.72;100.00;95188.16;10362470;28;2050;-70
2024/03/08 10:18:43;;;;;;;;;;;;;;;3.88;100.00;95183.88;10358190;28;2090;-79
2024/03/08 10:23:48;;;;;;;;;;;;;;;4.07;100.00;95176.38;10365753;28;2066;-73
2024/03/08 10:28:51;;;;;;;;;;;;;;;4.17;100.00;95170.38;10349128;28;1981;-66
2024/03/08 10:33:54;;;;;;;;;;;;;;;4.11;100.00;95164.19;10350744;28;2239;-67
2024/03/08 10:38:56;;;;;;;;;;;;;;;4.55;100.00;95156.97;10351311;28;2208;-66
2024/03/08 10:43:59;;;;;;;;;;;;;;;4.78;100.00;95147.91;10356081;28;1892;-65
2024/03/08 10:49:05;;;;;;;;;;;;;;;5.02;100.00;95158.22;10350833;28;2142;-66
2024/03/08 10:54:08;;;;;;;;;;;;;;;5.30;100.00;95147.25;10354660;28;2332;-67
2024/03/08 10:59:11;;;;;;;;;;;;;;;5.41;100.00;95142.81;10347079;28;2014;-66
2024/03/08 11:04:13;;;;;;;;;;;;;;;5.16;100.00;95138.09;10350491;28;2087;-68
2024/03/08 11:09:17;;;;;;;;;;;;;;;5.32;100.00;95126.47;10354940;28;1881;-69
2024/03/08 11:14:20;;;;;;;;;;;;;;;5.30;100.00;95120.63;10350543;28;1893;-66
2024/03/08 11:19:23;;;;;;;;;;;;;;;5.34;100.00;95116.38;10355183;28;2110;-68
2024/03/08 11:24:27;;;;;;;;;;;;;;;5.61;100.00;95104.81;10343768;28;2144;-64
2024/03/08 11:29:30;;;;;;;;;;;;;;;5.63;100.00;95092.81;10358966;28;2049;-65
2024/03/08 11:34:34;;;;;;;;;;;;;;;5.77;100.00;95098.47;10346446;28;1967;-66
2024/03/08 11:39:38;;;;;;;;;;;;;;;5.93;100.00;95086.88;10354813;28;1969;-66
2024/03/08 11:44:44;;;;;;;;;;;;;;;6.25;100.00;95077.09;10345429;28;2121;-66
2024/03/08 11:49:48;;;;;;;;;;;;;;;6.33;100.00;95074.72;10361619;28;2554;-65
2024/03/08 11:54:51;;;;;;;;;;;;;;;6.38;100.00;95088.06;10360087;28;1957;-67
2024/03/08 11:59:53;;;;;;;;;;;;;;;6.06;100.00;95074.91;10353840;28;2031;-63
2024/03/08 12:04:59;;;;;;;;;;;;;;;6.44;100.00;95065.66;10359498;28;1967;-64
2024/03/08 12:10:03;;;;;;;;;;;;;;;6.52;100.00;95050.97;10863625;22;3794;-68
2024/03/08 12:15:05;;;;;;;;;;;;;;;6.54;100.00;95045.38;10470008;28;1985;-67
2024/03/08 12:20:12;;;;;;;;;;;;;;;6.78;100.00;95038.44;10470562;28;1886;-70
2024/03/08 12:25:14;;;;;;;;;;;;;;;6.95;100.00;95043.53;10460352;28;2028;-68
2024/03/08 12:30:17;;;;;;;;;;;;;;;6.90;100.00;95035.50;10472733;28;1976;-68
2024/03/08 12:35:22;;;;;;;;;;;;;;;6.90;100.00;95022.94;10477454;28;2044;-68
2024/03/08 12:40:24;;;;;;;;;;;;;;;6.98;100.00;95027.75;10467516;28;1893;-69
2024/03/08 12:45:27;;;;;;;;;;;;;;;7.04;100.00;95015.19;10445725;28;2020;-67
2024/03/08 12:50:30;;;;;;;;;;;;;;;7.01;100.00;95003.16;10474673;28;1957;-69
2024/03/08 12:55:33;;;;;;;;;;;;;;;7.04;100.00;94999.13;10474554;28;1949;-68
2024/03/08 13:00:42;;;;;;;;;;;;;;;7.09;100.00;95001.81;10472762;28;1971;-69
2024/03/08 13:05:45;;;;;;;;;;;;;;;7.09;100.00;94987.66;10469411;28;2407;-68
2024/03/08 13:10:48;;;;;;;;;;;;;;;7.46;100.00;94974.72;10468407;28;1994;-70
2024/03/08 13:15:53;;;;;;;;;;;;;;;7.50;100.00;94975.75;10479709;28;2104;-72
2024/03/08 13:20:57;;;;;;;;;;;;;;;7.53;100.00;94969.88;10478810;28;1936;-68
2024/03/08 13:26:00;;;;;;;;;;;;;;;7.52;100.00;94981.66;10477397;28;1934;-68
2024/03/08 13:31:03;;;;;;;;;;;;;;;7.58;100.00;94961.84;10480999;28;2185;-67
2024/03/08 13:36:06;;;;;;;;;;;;;;;7.42;100.00;94960.28;10477030;28;1921;-67
2024/03/08 13:41:14;;;;;;;;;;;;;;;7.59;100.00;94952.72;10466742;28;2060;-69
2024/03/08 13:46:17;;;;;;;;;;;;;;;7.50;100.00;94949.00;10482235;28;2138;-69
2024/03/08 13:51:22;;;;;;;;;;;;;;;7.62;100.00;94937.19;10473427;28;2071;-68
2024/03/08 13:56:24;;;;;;;;;;;;;;;7.57;100.00;94924.66;10474244;28;2118;-68
2024/03/08 14:01:27;;;;;;;;;;;;;;;7.59;100.00;94925.19;10475222;28;2463;-67
2024/03/08 14:06:30;;;;;;;;;;;;;;;7.81;100.00;94916.75;10486412;28;1946;-70
2024/03/08 14:11:33;;;;;;;;;;;;;;;7.76;100.00;94924.81;10477349;28;1923;-68
2024/03/08 14:16:37;;;;;;;;;;;;;;;7.62;100.00;94902.44;10477260;28;1934;-68
2024/03/08 14:21:41;;;;;;;;;;;;;;;7.67;100.00;94895.19;10470591;28;2081;-68
2024/03/08 14:26:44;;;;;;;;;;;;;;;7.61;100.00;94896.28;10474750;28;1977;-68
2024/03/08 14:31:46;;;;;;;;;;;;;;;7.51;100.00;94874.97;10477651;28;2032;-68
2024/03/08 14:36:49;;;;;;;;;;;;;;;7.59;100.00;94885.06;10466225;28;2023;-68
2024/03/08 14:41:53;;;;;;;;;;;;;;;7.52;100.00;94876.56;10479170;28;1890;-68
2024/03/08 14:46:56;;;;;;;;;;;;;;;7.53;100.00;94867.44;10478438;28;2607;-67
2024/03/08 14:51:59;;;;;;;;;;;;;;;7.52;100.00;94877.34;10469297;28;1880;-69
2024/03/08 14:57:02;;;;;;;;;;;;;;;7.44;100.00;94875.22;10478827;28;2051;-68
2024/03/08 15:02:06;;;;;;;;;;;;;;;7.38;100.00;94871.03;10455087;28;1972;-68
2024/03/08 15:07:10;;;;;;;;;;;;;;;7.47;100.00;94858.66;10481153;28;2020;-68
2024/03/08 15:12:12;;;;;;;;;;;;;;;7.47;100.00;94853.31;10466537;28;2208;-67
2024/03/08 15:17:20;;;;;;;;;;;;;;;7.46;100.00;94845.56;10479479;28;1945;-69
2024/03/08 15:22:23;;;;;;;;;;;;;;;7.45;100.00;94836.75;10480060;28;1950;-68
2024/03/08 15:27:26;;;;;;;;;;;;;;;7.44;100.00;94839.69;10487856;28;2138;-72
2024/03/08 15:32:32;;;;;;;;;;;;;;;7.44;100.00;94837.00;10480879;28;2263;-68
2024/03/08 15:37:36;;;;;;;;;;;;;;;7.47;100.00;94829.25;10477523;28;2311;-67
2024/03/08 15:42:40;;;;;;;;;;;;;;;7.37;100.00;94826.63;10473093;28;2310;-67
2024/03/08 15:47:43;;;;;;;;;;;;;;;7.39;100.00;94827.16;10482748;28;2091;-67
2024/03/08 15:52:47;;;;;;;;;;;;;;;7.35;100.00;94823.44;10487584;28;2075;-68
2024/03/08 15:57:50;;;;;;;;;;;;;;;7.29;100.00;94829.88;10484809;28;2157;-68
2024/03/08 16:02:52;;;;;;;;;;;;;;;7.24;100.00;94829.91;10486334;28;1911;-68
2024/03/08 16:07:55;;;;;;;;;;;;;;;7.18;100.00;94823.78;10482089;28;1999;-68
2024/03/08 16:13:00;;;;;;;;;;;;;;;7.12;100.00;94818.72;10470977;28;2043;-68
2024/03/08 16:18:04;;;;;;;;;;;;;;;7.00;100.00;94811.84;10477706;28;2048;-68
2024/03/08 16:23:10;;;;;;;;;;;;;;;6.96;100.00;94816.13;10476109;28;2008;-75
2024/03/08 16:28:15;;;;;;;;;;;;;;;6.83;100.00;94811.38;10459781;28;2276;-66
2024/03/08 16:33:18;;;;;;;;;;;;;;;6.74;100.00;94813.84;10465600;28;2051;-66
2024/03/08 16:38:21;;;;;;;;;;;;;;;6.71;100.00;94810.91;10469427;28;2047;-66
2024/03/08 16:43:23;;;;;;;;;;;;;;;6.60;100.00;94804.78;10469821;28;1994;-69
2024/03/08 16:48:26;;;;;;;;;;;;;;;6.54;100.00;94799.72;10476380;28;2637;-67
2024/03/08 16:53:31;;;;;;;;;;;;;;;6.49;100.00;94800.56;10479957;28;2000;-66
2024/03/08 16:58:33;;;;;;;;;;;;;;;6.29;100.00;94796.03;10478326;28;1945;-68
2024/03/08 17:03:37;;;;;;;;;;;;;;;6.27;100.00;94787.50;10460379;28;2049;-68
2024/03/08 17:08:57;;;;;;;;;;;;;;;6.12;100.00;94777.69;10473222;28;2000;-65
2024/03/08 17:13:59;;;;;;;;;;;;;;;6.02;100.00;94784.88;10480835;28;1949;-71
2024/03/08 17:19:02;;;;;;;;;;;;;;;5.90;100.00;94777.94;10479869;28;2003;-68
2024/03/08 17:24:11;;;;;;;;;;;;;;;5.78;100.00;94790.72;10474674;28;1999;-67
2024/03/08 17:29:14;;;;;;;;;;;;;;;5.70;100.00;94777.94;10473162;28;2119;-66
2024/03/08 17:34:18;;;;;;;;;;;;;;;5.47;100.00;94781.13;10474241;28;2501;-69
2024/03/08 17:39:25;;;;;;;;;;;;;;;5.51;100.00;94775.00;10475960;28;2059;-66
2024/03/08 17:44:30;;;;;;;;;;;;;;;5.46;100.00;94774.19;10483265;28;2165;-65
2024/03/08 17:49:40;;;;;;;;;;;;;;;5.37;100.00;94772.06;10478907;28;1958;-65
2024/03/08 17:54:42;;;;;;;;;;;;;;;5.22;100.00;94777.38;10480486;28;1929;-64
2024/03/08 17:59:45;;;;;;;;;;;;;;;5.07;100.00;94772.81;10479975;28;2158;-65
2024/03/08 18:04:48;;;;;;;;;;;;;;;5.00;100.00;94766.13;10460337;28;2079;-65
2024/03/08 18:09:51;;;;;;;;;;;;;;;4.92;100.00;94762.13;10481675;28;1976;-65
2024/03/08 18:14:54;;;;;;;;;;;;;;;4.83;100.00;94761.03;10478470;28;1944;-65
2024/03/08 18:19:56;;;;;;;;;;;;;;;4.77;100.00;94757.56;10485953;28;2265;-65
2024/03/08 18:24:59;;;;;;;;;;;;;;;4.65;100.00;94751.66;10461271;28;1914;-66
2024/03/08 18:30:04;;;;;;;;;;;;;;;4.57;100.00;94744.16;10481889;28;2391;-70
2024/03/08 18:35:07;;;;;;;;;;;;;;;4.51;100.00;94734.56;10476011;28;2207;-67
2024/03/08 18:40:11;;;;;;;;;;;;;;;4.47;100.00;94725.50;10465457;28;2075;-65
2024/03/08 18:45:16;;;;;;;;;;;;;;;4.42;100.00;94720.97;10472478;28;2227;-66
2024/03/08 18:50:20;;;;;;;;;;;;;;;4.28;100.00;94723.31;10468980;28;2018;-66
2024/03/08 18:55:24;;;;;;;;;;;;;;;4.25;100.00;94707.84;10475382;28;2046;-66
2024/03/08 19:00:34;;;;;;;;;;;;;;;4.15;100.00;94699.84;10483940;28;2025;-65
2024/03/08 19:05:39;;;;;;;;;;;;;;;4.10;100.00;94707.78;10481144;28;1966;-65
2024/03/08 19:10:44;;;;;;;;;;;;;;;3.98;100.00;94701.88;10473119;28;1977;-66
2024/03/08 19:15:50;;;;;;;;;;;;;;;3.93;100.00;94693.88;10475823;28;2423;-65
2024/03/08 19:20:58;;;;;;;;;;;;;;;3.85;100.00;94694.38;10481786;28;1929;-66
2024/03/08 19:26:00;;;;;;;;;;;;;;;3.71;100.00;94694.03;10473021;28;1902;-68
2024/03/08 19:31:03;;;;;;;;;;;;;;;3.76;100.00;94684.22;10471303;28;1914;-69
2024/03/08 19:36:10;;;;;;;;;;;;;;;3.65;100.00;94685.22;10476506;28;1941;-65
2024/03/08 19:41:12;;;;;;;;;;;;;;;3.64;100.00;94685.47;10475896;28;2055;-65
2024/03/08 19:46:15;;;;;;;;;;;;;;;3.59;100.00;94675.63;10478626;28;2004;-66
2024/03/08 19:51:18;;;;;;;;;;;;;;;3.43;100.00;94677.34;10471385;28;1918;-65
2024/03/08 19:56:22;;;;;;;;;;;;;;;3.34;100.00;94673.59;10478820;28;1906;-66
2024/03/08 20:01:25;;;;;;;;;;;;;;;3.33;100.00;94679.97;10474470;28;1989;-65
2024/03/08 20:06:28;;;;;;;;;;;;;;;3.34;100.00;94672.78;10483858;28;2098;-66
2024/03/08 20:11:31;;;;;;;;;;;;;;;3.23;100.00;94678.00;10476512;28;2561;-65
2024/03/08 20:16:35;;;;;;;;;;;;;;;3.13;100.00;94675.28;10479198;28;1886;-66
2024/03/08 20:21:39;;;;;;;;;;;;;;;3.03;100.00;94677.84;10473333;28;1919;-71
2024/03/08 20:26:41;;;;;;;;;;;;;;;3.01;100.00;94679.97;10483075;28;1930;-67
2024/03/08 20:31:44;;;;;;;;;;;;;;;2.90;100.00;94670.31;10482545;28;2084;-65
2024/03/08 20:36:46;;;;;;;;;;;;;;;2.78;100.00;94667.00;10482189;28;2063;-65
2024/03/08 20:41:49;;;;;;;;;;;;;;;2.78;100.00;94674.97;10486641;28;2028;-65
2024/03/08 20:46:52;;;;;;;;;;;;;;;2.76;100.00;94669.94;10487640;28;2066;-64
2024/03/08 20:51:55;;;;;;;;;;;;;;;2.67;100.00;94664.28;10486146;28;1930;-65
2024/03/08 20:56:58;;;;;;;;;;;;;;;2.58;100.00;94659.66;10486671;28;2567;-65
2024/03/08 21:02:01;;;;;;;;;;;;;;;2.47;100.00;94650.78;10485838;28;2119;-66
2024/03/08 21:07:06;;;;;;;;;;;;;;;2.44;100.00;94648.66;10484180;28;2110;-65
2024/03/08 21:12:10;;;;;;;;;;;;;;;2.43;100.00;94637.25;10485197;28;2137;-65
2024/03/08 21:17:13;;;;;;;;;;;;;;;2.29;100.00;94643.19;10485951;28;1980;-66
2024/03/08 21:22:16;;;;;;;;;;;;;;;2.31;100.00;94633.16;10481050;28;2266;-65
2024/03/08 21:27:18;;;;;;;;;;;;;;;2.32;100.00;94629.44;10458343;28;1949;-66
2024/03/08 21:32:21;;;;;;;;;;;;;;;2.15;100.00;94629.50;10475931;28;1906;-67
2024/03/08 21:37:25;;;;;;;;;;;;;;;2.09;100.00;94636.59;10463901;28;2422;-65
2024/03/08 21:42:28;;;;;;;;;;;;;;;2.14;100.00;94631.38;10458306;28;2074;-65
2024/03/08 21:47:31;;;;;;;;;;;;;;;2.11;100.00;94613.31;10485527;28;2004;-67
2024/03/08 21:52:34;;;;;;;;;;;;;;;2.03;100.00;94610.28;10483240;28;1990;-65
2024/03/08 21:57:40;;;;;;;;;;;;;;;1.90;100.00;94616.78;10482587;28;1897;-68
2024/03/08 22:02:45;;;;;;;;;;;;;;;1.95;100.00;94614.19;10468447;28;2293;-67
2024/03/08 22:07:47;;;;;;;;;;;;;;;1.89;100.00;94617.81;10466232;28;1979;-69
2024/03/08 22:12:49;;;;;;;;;;;;;;;1.75;100.00;94627.19;10479372;28;1992;-68
2024/03/08 22:17:55;;;;;;;;;;;;;;;1.79;100.00;94610.56;10480017;28;1927;-68
2024/03/08 22:22:59;;;;;;;;;;;;;;;1.83;100.00;94602.91;10482599;28;1961;-68
2024/03/08 22:28:04;;;;;;;;;;;;;;;1.73;100.00;94600.16;10477587;28;2597;-67
2024/03/08 22:33:06;;;;;;;;;;;;;;;1.60;100.00;94591.53;10482505;28;2080;-67
2024/03/08 22:38:09;;;;;;;;;;;;;;;1.56;100.00;94595.72;10479156;28;1954;-73
2024/03/08 22:43:12;;;;;;;;;;;;;;;1.54;100.00;94595.16;10476812;28;1977;-68
2024/03/08 22:48:20;;;;;;;;;;;;;;;1.57;100.00;94592.00;10482218;28;2061;-67
2024/03/08 22:53:23;;;;;;;;;;;;;;;1.52;100.00;94599.09;10477144;28;2055;-67
2024/03/08 22:58:27;;;;;;;;;;;;;;;1.50;100.00;94591.41;10485649;28;1964;-66
2024/03/08 23:03:31;;;;;;;;;;;;;;;1.43;100.00;94589.97;10474196;28;2173;-66
2024/03/08 23:08:45;;;;;;;;;;;;;;;1.39;100.00;94592.31;10579228;27;1991;-67
2024/03/08 23:13:47;;;;;;;;;;;;;;;1.43;100.00;94582.84;10575468;27;2103;-67
2024/03/08 23:18:50;;;;;;;;;;;;;;;1.42;100.00;94585.72;10571614;27;2070;-67
2024/03/08 23:23:52;;;;;;;;;;;;;;;1.35;100.00;94588.56;10576333;27;2140;-68
2024/03/08 23:28:55;;;;;;;;;;;;;;;1.32;100.00;94599.63;10574983;27;1888;-70
2024/03/08 23:33:58;;;;;;;;;;;;;;;1.29;100.00;94602.78;10572372;27;1877;-67
2024/03/08 23:39:00;;;;;;;;;;;;;;;1.41;100.00;94592.06;10574154;27;2132;-68
2024/03/08 23:44:05;;;;;;;;;;;;;;;1.37;100.00;94591.75;10580292;27;2711;-67
2024/03/08 23:49:08;;;;;;;;;;;;;;;1.40;100.00;94585.16;10597654;27;2007;-68
2024/03/08 23:54:10;;;;;;;;;;;;;;;1.42;100.00;94599.78;10572303;27;1950;-68
2024/03/08 23:59:13;;;;;;;;;;;;;;;1.40;100.00;94595.75;10574853;27;2056;-67
